sensor_id;sensor_type;location;lat;lon;timestamp;P1;durP1;ratioP1;P2;durP2;ratioP2
51467;SDS011;37545;45.302;-122.946;2022-09-12T00:01:55;17.60;;;8.52;;
51467;SDS011;37545;45.302;-122.946;2022-09-12T00:04:24;19.92;;;8.88;;
51467;SDS011;37545;45.302;-122.946;2022-09-12T00:06:53;19.30;;;8.38;;
51467;SDS011;37545;45.302;-122.946;2022-09-12T00:09:21;17.50;;;8.98;;
51467;SDS011;37545;45.302;-122.946;2022-09-12T00:11:50;18.02;;;8.93;;
51467;SDS011;37545;45.302;-122.946;2022-09-12T00:14:18;15.77;;;8.43;;
51467;SDS011;37545;45.302;-122.946;2022-09-12T00:16:49;14.85;;;8.60;;
51467;SDS011;37545;45.302;-122.946;2022-09-12T00:19:17;14.13;;;8.63;;
51467;SDS011;37545;45.302;-122.946;2022-09-12T00:21:47;17.52;;;9.05;;
51467;SDS011;37545;45.302;-122.946;2022-09-12T00:24:18;15.50;;;9.15;;
51467;SDS011;37545;45.302;-122.946;2022-09-12T00:26:47;17.25;;;8.70;;
51467;SDS011;37545;45.302;-122.946;2022-09-12T00:29:16;16.23;;;9.20;;
51467;SDS011;37545;45.302;-122.946;2022-09-12T00:31:47;15.45;;;8.23;;
51467;SDS011;37545;45.302;-122.946;2022-09-12T00:34:17;15.98;;;8.77;;
51467;SDS011;37545;45.302;-122.946;2022-09-12T00:36:46;15.75;;;8.35;;
51467;SDS011;37545;45.302;-122.946;2022-09-12T00:39:16;17.38;;;8.52;;
51467;SDS011;37545;45.302;-122.946;2022-09-12T00:41:44;16.75;;;9.38;;
51467;SDS011;37545;45.302;-122.946;2022-09-12T00:47:19;15.57;;;8.80;;
51467;SDS011;37545;45.302;-122.946;2022-09-12T00:49:54;15.25;;;8.32;;
51467;SDS011;37545;45.302;-122.946;2022-09-12T00:52:27;13.18;;;8.10;;
51467;SDS011;37545;45.302;-122.946;2022-09-12T00:55:01;14.18;;;8.52;;
51467;SDS011;37545;45.302;-122.946;2022-09-12T00:57:34;14.18;;;8.65;;
51467;SDS011;37545;45.302;-122.946;2022-09-12T01:00:09;18.67;;;8.93;;
51467;SDS011;37545;45.302;-122.946;2022-09-12T01:02:52;13.68;;;8.73;;
51467;SDS011;37545;45.302;-122.946;2022-09-12T01:05:24;16.92;;;8.48;;
51467;SDS011;37545;45.302;-122.946;2022-09-12T01:07:55;14.48;;;8.20;;
51467;SDS011;37545;45.302;-122.946;2022-09-12T01:10:24;17.50;;;8.90;;
51467;SDS011;37545;45.302;-122.946;2022-09-12T01:12:53;14.63;;;8.18;;
51467;SDS011;37545;45.302;-122.946;2022-09-12T01:15:22;14.27;;;8.38;;
51467;SDS011;37545;45.302;-122.946;2022-09-12T01:17:57;16.80;;;8.10;;
51467;SDS011;37545;45.302;-122.946;2022-09-12T01:30:23;17.38;;;9.13;;
51467;SDS011;37545;45.302;-122.946;2022-09-12T01:33:02;16.60;;;8.98;;
51467;SDS011;37545;45.302;-122.946;2022-09-12T01:35:47;12.52;;;8.43;;
51467;SDS011;37545;45.302;-122.946;2022-09-12T01:38:23;14.85;;;8.13;;
51467;SDS011;37545;45.302;-122.946;2022-09-12T01:40:58;17.27;;;8.57;;
51467;SDS011;37545;45.302;-122.946;2022-09-12T01:43:37;16.67;;;8.57;;
51467;SDS011;37545;45.302;-122.946;2022-09-12T01:46:16;21.30;;;8.68;;
51467;SDS011;37545;45.302;-122.946;2022-09-12T01:48:50;18.88;;;9.07;;
51467;SDS011;37545;45.302;-122.946;2022-09-12T01:51:25;18.63;;;7.97;;
51467;SDS011;37545;45.302;-122.946;2022-09-12T01:54:00;11.85;;;6.75;;
51467;SDS011;37545;45.302;-122.946;2022-09-12T01:56:33;19.95;;;7.93;;
51467;SDS011;37545;45.302;-122.946;2022-09-12T01:59:05;16.52;;;7.90;;
51467;SDS011;37545;45.302;-122.946;2022-09-12T02:01:43;13.07;;;7.72;;
51467;SDS011;37545;45.302;-122.946;2022-09-12T02:04:17;20.42;;;7.65;;
51467;SDS011;37545;45.302;-122.946;2022-09-12T02:06:51;20.58;;;8.30;;
51467;SDS011;37545;45.302;-122.946;2022-09-12T02:09:24;18.73;;;7.85;;
51467;SDS011;37545;45.302;-122.946;2022-09-12T02:11:59;18.60;;;8.20;;
51467;SDS011;37545;45.302;-122.946;2022-09-12T02:14:31;15.70;;;7.60;;
51467;SDS011;37545;45.302;-122.946;2022-09-12T02:17:06;15.23;;;7.55;;
51467;SDS011;37545;45.302;-122.946;2022-09-12T02:19:39;16.95;;;7.72;;
51467;SDS011;37545;45.302;-122.946;2022-09-12T02:22:12;14.52;;;7.88;;
51467;SDS011;37545;45.302;-122.946;2022-09-12T02:24:45;18.63;;;7.60;;
51467;SDS011;37545;45.302;-122.946;2022-09-12T02:27:17;17.55;;;7.88;;
51467;SDS011;37545;45.302;-122.946;2022-09-12T02:29:50;14.25;;;7.07;;
51467;SDS011;37545;45.302;-122.946;2022-09-12T02:32:23;15.10;;;7.07;;
51467;SDS011;37545;45.302;-122.946;2022-09-12T02:34:58;14.75;;;6.97;;
51467;SDS011;37545;45.302;-122.946;2022-09-12T02:37:32;15.35;;;7.68;;
51467;SDS011;37545;45.302;-122.946;2022-09-12T02:40:12;22.13;;;7.82;;
51467;SDS011;37545;45.302;-122.946;2022-09-12T02:42:42;15.10;;;7.55;;
51467;SDS011;37545;45.302;-122.946;2022-09-12T02:45:10;14.80;;;7.10;;
51467;SDS011;37545;45.302;-122.946;2022-09-12T02:47:42;15.75;;;7.72;;
51467;SDS011;37545;45.302;-122.946;2022-09-12T02:50:14;19.02;;;7.47;;
51467;SDS011;37545;45.302;-122.946;2022-09-12T02:52:43;17.88;;;8.27;;
51467;SDS011;37545;45.302;-122.946;2022-09-12T02:55:13;20.05;;;7.90;;
51467;SDS011;37545;45.302;-122.946;2022-09-12T02:57:42;18.67;;;8.10;;
51467;SDS011;37545;45.302;-122.946;2022-09-12T03:00:11;18.58;;;7.97;;
51467;SDS011;37545;45.302;-122.946;2022-09-12T03:02:48;23.83;;;7.38;;
51467;SDS011;37545;45.302;-122.946;2022-09-12T03:05:36;15.70;;;7.60;;
51467;SDS011;37545;45.302;-122.946;2022-09-12T03:08:26;20.85;;;8.80;;
51467;SDS011;37545;45.302;-122.946;2022-09-12T03:11:25;18.77;;;8.30;;
51467;SDS011;37545;45.302;-122.946;2022-09-12T03:14:10;15.38;;;7.55;;
51467;SDS011;37545;45.302;-122.946;2022-09-12T03:16:51;19.37;;;7.83;;
51467;SDS011;37545;45.302;-122.946;2022-09-12T03:19:31;19.45;;;8.30;;
51467;SDS011;37545;45.302;-122.946;2022-09-12T03:22:18;17.65;;;7.80;;
51467;SDS011;37545;45.302;-122.946;2022-09-12T03:24:56;17.20;;;8.52;;
51467;SDS011;37545;45.302;-122.946;2022-09-12T03:27:32;15.88;;;7.88;;
51467;SDS011;37545;45.302;-122.946;2022-09-12T03:30:03;18.25;;;7.72;;
51467;SDS011;37545;45.302;-122.946;2022-09-12T03:32:40;15.68;;;7.82;;
51467;SDS011;37545;45.302;-122.946;2022-09-12T03:35:13;15.68;;;7.85;;
51467;SDS011;37545;45.302;-122.946;2022-09-12T03:37:43;15.65;;;6.90;;
51467;SDS011;37545;45.302;-122.946;2022-09-12T03:40:12;16.02;;;7.53;;
51467;SDS011;37545;45.302;-122.946;2022-09-12T03:42:41;16.35;;;7.22;;
51467;SDS011;37545;45.302;-122.946;2022-09-12T03:45:10;19.55;;;8.07;;
51467;SDS011;37545;45.302;-122.946;2022-09-12T03:47:38;18.95;;;7.68;;
51467;SDS011;37545;45.302;-122.946;2022-09-12T03:50:07;18.73;;;9.70;;
51467;SDS011;37545;45.302;-122.946;2022-09-12T03:52:38;15.25;;;7.72;;
51467;SDS011;37545;45.302;-122.946;2022-09-12T03:55:06;17.40;;;8.27;;
51467;SDS011;37545;45.302;-122.946;2022-09-12T03:57:35;24.15;;;9.38;;
51467;SDS011;37545;45.302;-122.946;2022-09-12T04:00:05;18.38;;;8.30;;
51467;SDS011;37545;45.302;-122.946;2022-09-12T04:02:35;15.73;;;7.47;;
51467;SDS011;37545;45.302;-122.946;2022-09-12T04:05:04;20.17;;;8.65;;
51467;SDS011;37545;45.302;-122.946;2022-09-12T04:07:32;21.17;;;9.15;;
51467;SDS011;37545;45.302;-122.946;2022-09-12T04:10:03;22.13;;;8.63;;
51467;SDS011;37545;45.302;-122.946;2022-09-12T04:12:32;18.85;;;7.60;;
51467;SDS011;37545;45.302;-122.946;2022-09-12T04:15:01;16.95;;;8.43;;
51467;SDS011;37545;45.302;-122.946;2022-09-12T04:17:32;23.65;;;8.80;;
51467;SDS011;37545;45.302;-122.946;2022-09-12T04:20:02;20.00;;;8.07;;
51467;SDS011;37545;45.302;-122.946;2022-09-12T04:22:32;14.80;;;7.75;;
51467;SDS011;37545;45.302;-122.946;2022-09-12T04:25:00;19.80;;;7.72;;
51467;SDS011;37545;45.302;-122.946;2022-09-12T04:27:31;19.70;;;8.27;;
51467;SDS011;37545;45.302;-122.946;2022-09-12T04:30:00;16.02;;;8.15;;
51467;SDS011;37545;45.302;-122.946;2022-09-12T04:32:29;20.33;;;8.75;;
51467;SDS011;37545;45.302;-122.946;2022-09-12T04:34:58;22.45;;;8.70;;
51467;SDS011;37545;45.302;-122.946;2022-09-12T04:37:27;16.45;;;8.32;;
51467;SDS011;37545;45.302;-122.946;2022-09-12T04:39:58;17.48;;;8.18;;
51467;SDS011;37545;45.302;-122.946;2022-09-12T04:42:32;17.83;;;8.38;;
51467;SDS011;37545;45.302;-122.946;2022-09-12T04:45:01;21.50;;;7.88;;
51467;SDS011;37545;45.302;-122.946;2022-09-12T04:47:30;14.32;;;8.02;;
51467;SDS011;37545;45.302;-122.946;2022-09-12T04:49:59;17.67;;;8.40;;
51467;SDS011;37545;45.302;-122.946;2022-09-12T04:52:28;17.80;;;8.45;;
51467;SDS011;37545;45.302;-122.946;2022-09-12T04:54:56;24.67;;;8.77;;
51467;SDS011;37545;45.302;-122.946;2022-09-12T04:57:25;21.17;;;8.98;;
51467;SDS011;37545;45.302;-122.946;2022-09-12T04:59:55;18.20;;;8.73;;
51467;SDS011;37545;45.302;-122.946;2022-09-12T05:02:24;24.25;;;8.93;;
51467;SDS011;37545;45.302;-122.946;2022-09-12T05:04:53;19.02;;;8.77;;
51467;SDS011;37545;45.302;-122.946;2022-09-12T05:07:22;19.45;;;8.85;;
51467;SDS011;37545;45.302;-122.946;2022-09-12T05:09:50;24.58;;;9.02;;
51467;SDS011;37545;45.302;-122.946;2022-09-12T05:12:19;18.98;;;8.60;;
51467;SDS011;37545;45.302;-122.946;2022-09-12T05:14:48;19.33;;;8.23;;
51467;SDS011;37545;45.302;-122.946;2022-09-12T05:17:18;20.02;;;8.88;;
51467;SDS011;37545;45.302;-122.946;2022-09-12T05:19:47;22.38;;;8.85;;
51467;SDS011;37545;45.302;-122.946;2022-09-12T05:22:16;18.10;;;8.85;;
51467;SDS011;37545;45.302;-122.946;2022-09-12T05:24:44;15.70;;;8.15;;
51467;SDS011;37545;45.302;-122.946;2022-09-12T05:27:13;19.17;;;8.50;;
51467;SDS011;37545;45.302;-122.946;2022-09-12T05:29:42;20.70;;;8.23;;
51467;SDS011;37545;45.302;-122.946;2022-09-12T05:32:10;21.02;;;9.13;;
51467;SDS011;37545;45.302;-122.946;2022-09-12T05:34:40;19.38;;;8.93;;
51467;SDS011;37545;45.302;-122.946;2022-09-12T05:37:09;22.67;;;8.98;;
51467;SDS011;37545;45.302;-122.946;2022-09-12T05:39:38;21.17;;;8.98;;
51467;SDS011;37545;45.302;-122.946;2022-09-12T05:42:06;20.83;;;8.35;;
51467;SDS011;37545;45.302;-122.946;2022-09-12T05:44:35;18.92;;;8.57;;
51467;SDS011;37545;45.302;-122.946;2022-09-12T05:47:04;21.05;;;8.20;;
51467;SDS011;37545;45.302;-122.946;2022-09-12T05:49:33;22.02;;;9.00;;
51467;SDS011;37545;45.302;-122.946;2022-09-12T05:52:04;23.38;;;8.68;;
51467;SDS011;37545;45.302;-122.946;2022-09-12T05:54:33;25.02;;;9.65;;
51467;SDS011;37545;45.302;-122.946;2022-09-12T05:57:01;21.55;;;11.02;;
51467;SDS011;37545;45.302;-122.946;2022-09-12T05:59:30;24.30;;;8.75;;
51467;SDS011;37545;45.302;-122.946;2022-09-12T06:01:59;16.70;;;8.98;;
51467;SDS011;37545;45.302;-122.946;2022-09-12T06:04:28;18.08;;;8.25;;
51467;SDS011;37545;45.302;-122.946;2022-09-12T06:06:56;26.13;;;9.48;;
51467;SDS011;37545;45.302;-122.946;2022-09-12T06:09:27;19.50;;;8.80;;
51467;SDS011;37545;45.302;-122.946;2022-09-12T06:11:56;21.85;;;8.73;;
51467;SDS011;37545;45.302;-122.946;2022-09-12T06:14:25;16.92;;;9.00;;
51467;SDS011;37545;45.302;-122.946;2022-09-12T06:16:54;21.35;;;8.85;;
51467;SDS011;37545;45.302;-122.946;2022-09-12T06:19:22;16.92;;;8.65;;
51467;SDS011;37545;45.302;-122.946;2022-09-12T06:21:52;21.17;;;8.55;;
51467;SDS011;37545;45.302;-122.946;2022-09-12T06:24:21;19.65;;;9.27;;
51467;SDS011;37545;45.302;-122.946;2022-09-12T06:26:51;17.98;;;8.70;;
51467;SDS011;37545;45.302;-122.946;2022-09-12T06:29:20;23.95;;;9.32;;
51467;SDS011;37545;45.302;-122.946;2022-09-12T06:31:49;18.77;;;8.50;;
51467;SDS011;37545;45.302;-122.946;2022-09-12T06:34:17;18.13;;;8.85;;
51467;SDS011;37545;45.302;-122.946;2022-09-12T06:36:47;19.63;;;8.85;;
51467;SDS011;37545;45.302;-122.946;2022-09-12T06:39:16;17.48;;;8.35;;
51467;SDS011;37545;45.302;-122.946;2022-09-12T06:41:46;19.42;;;9.02;;
51467;SDS011;37545;45.302;-122.946;2022-09-12T06:44:17;21.58;;;8.95;;
51467;SDS011;37545;45.302;-122.946;2022-09-12T06:46:47;18.40;;;9.27;;
51467;SDS011;37545;45.302;-122.946;2022-09-12T06:49:18;17.13;;;8.85;;
51467;SDS011;37545;45.302;-122.946;2022-09-12T06:51:46;23.10;;;9.52;;
51467;SDS011;37545;45.302;-122.946;2022-09-12T06:54:15;20.58;;;9.05;;
51467;SDS011;37545;45.302;-122.946;2022-09-12T06:56:44;18.90;;;8.98;;
51467;SDS011;37545;45.302;-122.946;2022-09-12T06:59:13;17.35;;;9.48;;
51467;SDS011;37545;45.302;-122.946;2022-09-12T07:01:43;24.05;;;9.70;;
51467;SDS011;37545;45.302;-122.946;2022-09-12T07:04:12;18.60;;;9.25;;
51467;SDS011;37545;45.302;-122.946;2022-09-12T07:06:40;20.20;;;9.32;;
51467;SDS011;37545;45.302;-122.946;2022-09-12T07:09:10;21.88;;;9.55;;
51467;SDS011;37545;45.302;-122.946;2022-09-12T07:11:41;26.57;;;10.43;;
51467;SDS011;37545;45.302;-122.946;2022-09-12T07:14:10;18.10;;;9.45;;
51467;SDS011;37545;45.302;-122.946;2022-09-12T07:16:40;21.75;;;9.30;;
51467;SDS011;37545;45.302;-122.946;2022-09-12T07:19:10;23.23;;;10.35;;
51467;SDS011;37545;45.302;-122.946;2022-09-12T07:21:39;22.17;;;9.90;;
51467;SDS011;37545;45.302;-122.946;2022-09-12T07:24:08;21.05;;;10.40;;
51467;SDS011;37545;45.302;-122.946;2022-09-12T07:26:37;18.08;;;9.55;;
51467;SDS011;37545;45.302;-122.946;2022-09-12T07:29:06;22.65;;;10.40;;
51467;SDS011;37545;45.302;-122.946;2022-09-12T07:31:44;20.67;;;9.48;;
51467;SDS011;37545;45.302;-122.946;2022-09-12T07:34:12;26.02;;;10.05;;
51467;SDS011;37545;45.302;-122.946;2022-09-12T07:36:42;20.90;;;9.60;;
51467;SDS011;37545;45.302;-122.946;2022-09-12T07:39:10;16.75;;;9.18;;
51467;SDS011;37545;45.302;-122.946;2022-09-12T07:41:39;25.15;;;9.73;;
51467;SDS011;37545;45.302;-122.946;2022-09-12T07:44:08;20.80;;;10.20;;
51467;SDS011;37545;45.302;-122.946;2022-09-12T07:46:36;20.25;;;9.90;;
51467;SDS011;37545;45.302;-122.946;2022-09-12T07:49:07;23.48;;;10.38;;
51467;SDS011;37545;45.302;-122.946;2022-09-12T07:51:38;20.92;;;10.50;;
51467;SDS011;37545;45.302;-122.946;2022-09-12T07:54:08;27.85;;;9.65;;
51467;SDS011;37545;45.302;-122.946;2022-09-12T07:56:36;18.98;;;10.30;;
51467;SDS011;37545;45.302;-122.946;2022-09-12T07:59:05;23.08;;;10.02;;
51467;SDS011;37545;45.302;-122.946;2022-09-12T08:01:34;21.50;;;9.48;;
51467;SDS011;37545;45.302;-122.946;2022-09-12T08:04:04;22.02;;;9.82;;
51467;SDS011;37545;45.302;-122.946;2022-09-12T08:06:34;19.88;;;10.13;;
51467;SDS011;37545;45.302;-122.946;2022-09-12T08:09:04;22.25;;;9.82;;
51467;SDS011;37545;45.302;-122.946;2022-09-12T08:11:33;22.55;;;9.48;;
51467;SDS011;37545;45.302;-122.946;2022-09-12T08:14:02;23.35;;;10.25;;
51467;SDS011;37545;45.302;-122.946;2022-09-12T08:16:31;22.58;;;10.10;;
51467;SDS011;37545;45.302;-122.946;2022-09-12T08:19:00;20.75;;;9.93;;
51467;SDS011;37545;45.302;-122.946;2022-09-12T08:21:30;21.38;;;10.70;;
51467;SDS011;37545;45.302;-122.946;2022-09-12T08:24:02;21.52;;;9.90;;
51467;SDS011;37545;45.302;-122.946;2022-09-12T08:29:01;19.38;;;10.63;;
51467;SDS011;37545;45.302;-122.946;2022-09-12T08:31:30;20.25;;;10.07;;
51467;SDS011;37545;45.302;-122.946;2022-09-12T08:34:01;20.92;;;10.27;;
51467;SDS011;37545;45.302;-122.946;2022-09-12T08:36:30;18.48;;;9.88;;
51467;SDS011;37545;45.302;-122.946;2022-09-12T08:39:02;22.83;;;11.80;;
51467;SDS011;37545;45.302;-122.946;2022-09-12T08:41:32;18.38;;;9.38;;
51467;SDS011;37545;45.302;-122.946;2022-09-12T08:44:08;19.05;;;10.18;;
51467;SDS011;37545;45.302;-122.946;2022-09-12T08:46:50;21.67;;;11.05;;
51467;SDS011;37545;45.302;-122.946;2022-09-12T08:49:38;17.70;;;10.23;;
51467;SDS011;37545;45.302;-122.946;2022-09-12T08:52:13;19.00;;;9.80;;
51467;SDS011;37545;45.302;-122.946;2022-09-12T08:54:47;18.85;;;9.73;;
51467;SDS011;37545;45.302;-122.946;2022-09-12T08:57:16;20.95;;;10.15;;
51467;SDS011;37545;45.302;-122.946;2022-09-12T08:59:45;20.63;;;10.15;;
51467;SDS011;37545;45.302;-122.946;2022-09-12T09:02:22;21.42;;;9.95;;
51467;SDS011;37545;45.302;-122.946;2022-09-12T09:05:15;18.75;;;9.35;;
51467;SDS011;37545;45.302;-122.946;2022-09-12T09:13:32;20.17;;;9.77;;
51467;SDS011;37545;45.302;-122.946;2022-09-12T09:16:30;16.23;;;9.38;;
51467;SDS011;37545;45.302;-122.946;2022-09-12T09:19:01;19.17;;;9.82;;
51467;SDS011;37545;45.302;-122.946;2022-09-12T09:21:36;21.23;;;9.93;;
51467;SDS011;37545;45.302;-122.946;2022-09-12T09:24:11;20.23;;;10.07;;
51467;SDS011;37545;45.302;-122.946;2022-09-12T09:26:45;20.80;;;10.60;;
51467;SDS011;37545;45.302;-122.946;2022-09-12T09:29:20;23.95;;;10.23;;
51467;SDS011;37545;45.302;-122.946;2022-09-12T09:31:51;21.58;;;11.02;;
51467;SDS011;37545;45.302;-122.946;2022-09-12T09:34:22;20.15;;;9.68;;
51467;SDS011;37545;45.302;-122.946;2022-09-12T09:36:54;19.58;;;9.27;;
51467;SDS011;37545;45.302;-122.946;2022-09-12T09:39:38;19.77;;;9.57;;
51467;SDS011;37545;45.302;-122.946;2022-09-12T09:42:18;21.85;;;10.48;;
51467;SDS011;37545;45.302;-122.946;2022-09-12T09:44:55;20.35;;;10.52;;
51467;SDS011;37545;45.302;-122.946;2022-09-12T09:47:26;21.13;;;10.32;;
51467;SDS011;37545;45.302;-122.946;2022-09-12T09:49:55;20.67;;;9.63;;
51467;SDS011;37545;45.302;-122.946;2022-09-12T09:52:32;23.48;;;9.90;;
51467;SDS011;37545;45.302;-122.946;2022-09-12T09:55:02;18.42;;;9.65;;
51467;SDS011;37545;45.302;-122.946;2022-09-12T09:57:41;17.80;;;10.27;;
51467;SDS011;37545;45.302;-122.946;2022-09-12T10:00:27;17.77;;;10.18;;
51467;SDS011;37545;45.302;-122.946;2022-09-12T10:03:01;18.02;;;9.95;;
51467;SDS011;37545;45.302;-122.946;2022-09-12T10:05:48;17.15;;;9.57;;
51467;SDS011;37545;45.302;-122.946;2022-09-12T10:08:19;19.05;;;10.40;;
51467;SDS011;37545;45.302;-122.946;2022-09-12T10:10:54;20.35;;;8.65;;
51467;SDS011;37545;45.302;-122.946;2022-09-12T10:13:29;20.85;;;9.70;;
51467;SDS011;37545;45.302;-122.946;2022-09-12T10:16:04;21.67;;;9.77;;
51467;SDS011;37545;45.302;-122.946;2022-09-12T10:18:43;19.73;;;10.68;;
51467;SDS011;37545;45.302;-122.946;2022-09-12T10:24:12;21.38;;;9.35;;
51467;SDS011;37545;45.302;-122.946;2022-09-12T10:26:48;23.10;;;10.02;;
51467;SDS011;37545;45.302;-122.946;2022-09-12T10:29:22;21.02;;;10.40;;
51467;SDS011;37545;45.302;-122.946;2022-09-12T10:31:54;18.17;;;8.70;;
51467;SDS011;37545;45.302;-122.946;2022-09-12T10:34:27;18.67;;;10.45;;
51467;SDS011;37545;45.302;-122.946;2022-09-12T10:36:59;18.80;;;9.85;;
51467;SDS011;37545;45.302;-122.946;2022-09-12T10:39:30;17.15;;;8.27;;
51467;SDS011;37545;45.302;-122.946;2022-09-12T10:42:00;20.15;;;9.45;;
51467;SDS011;37545;45.302;-122.946;2022-09-12T10:44:32;13.65;;;7.35;;
51467;SDS011;37545;45.302;-122.946;2022-09-12T10:49:49;20.40;;;10.55;;
51467;SDS011;37545;45.302;-122.946;2022-09-12T10:52:20;16.05;;;9.13;;
51467;SDS011;37545;45.302;-122.946;2022-09-12T10:54:50;21.30;;;10.68;;
51467;SDS011;37545;45.302;-122.946;2022-09-12T10:57:29;23.80;;;10.02;;
51467;SDS011;37545;45.302;-122.946;2022-09-12T11:00:15;17.70;;;9.80;;
51467;SDS011;37545;45.302;-122.946;2022-09-12T11:03:04;20.23;;;9.90;;
51467;SDS011;37545;45.302;-122.946;2022-09-12T11:05:47;18.33;;;9.30;;
51467;SDS011;37545;45.302;-122.946;2022-09-12T11:08:25;21.27;;;10.07;;
51467;SDS011;37545;45.302;-122.946;2022-09-12T11:11:06;13.50;;;9.45;;
51467;SDS011;37545;45.302;-122.946;2022-09-12T11:13:47;27.02;;;9.90;;
51467;SDS011;37545;45.302;-122.946;2022-09-12T11:16:36;18.20;;;10.20;;
51467;SDS011;37545;45.302;-122.946;2022-09-12T11:19:20;22.02;;;9.82;;
51467;SDS011;37545;45.302;-122.946;2022-09-12T11:22:07;14.02;;;8.05;;
51467;SDS011;37545;45.302;-122.946;2022-09-12T11:24:56;18.98;;;9.60;;
51467;SDS011;37545;45.302;-122.946;2022-09-12T11:27:44;20.40;;;9.13;;
51467;SDS011;37545;45.302;-122.946;2022-09-12T11:30:32;15.63;;;8.77;;
51467;SDS011;37545;45.302;-122.946;2022-09-12T11:33:22;19.40;;;10.07;;
51467;SDS011;37545;45.302;-122.946;2022-09-12T11:36:04;17.25;;;10.05;;
51467;SDS011;37545;45.302;-122.946;2022-09-12T11:38:45;14.95;;;8.85;;
51467;SDS011;37545;45.302;-122.946;2022-09-12T11:41:29;22.10;;;9.73;;
51467;SDS011;37545;45.302;-122.946;2022-09-12T11:44:09;20.17;;;8.57;;
51467;SDS011;37545;45.302;-122.946;2022-09-12T11:49:15;18.65;;;8.85;;
51467;SDS011;37545;45.302;-122.946;2022-09-12T11:51:52;18.35;;;10.02;;
51467;SDS011;37545;45.302;-122.946;2022-09-12T11:54:26;19.67;;;9.75;;
51467;SDS011;37545;45.302;-122.946;2022-09-12T11:57:03;17.08;;;8.90;;
51467;SDS011;37545;45.302;-122.946;2022-09-12T11:59:41;16.40;;;8.32;;
51467;SDS011;37545;45.302;-122.946;2022-09-12T12:02:14;19.02;;;8.57;;
51467;SDS011;37545;45.302;-122.946;2022-09-12T12:04:55;16.13;;;9.05;;
51467;SDS011;37545;45.302;-122.946;2022-09-12T12:07:32;19.42;;;8.45;;
51467;SDS011;37545;45.302;-122.946;2022-09-12T12:10:20;18.20;;;9.43;;
51467;SDS011;37545;45.302;-122.946;2022-09-12T12:12:54;20.55;;;9.27;;
51467;SDS011;37545;45.302;-122.946;2022-09-12T12:15:24;17.40;;;8.63;;
51467;SDS011;37545;45.302;-122.946;2022-09-12T12:18:04;21.23;;;9.85;;
51467;SDS011;37545;45.302;-122.946;2022-09-12T12:20:36;20.83;;;9.10;;
51467;SDS011;37545;45.302;-122.946;2022-09-12T12:23:05;22.15;;;9.10;;
51467;SDS011;37545;45.302;-122.946;2022-09-12T12:25:51;18.92;;;9.73;;
51467;SDS011;37545;45.302;-122.946;2022-09-12T12:31:24;19.20;;;9.10;;
51467;SDS011;37545;45.302;-122.946;2022-09-12T12:33:54;22.83;;;8.95;;
51467;SDS011;37545;45.302;-122.946;2022-09-12T12:36:41;23.60;;;10.10;;
51467;SDS011;37545;45.302;-122.946;2022-09-12T12:45:48;22.52;;;9.45;;
51467;SDS011;37545;45.302;-122.946;2022-09-12T12:48:29;20.00;;;9.55;;
51467;SDS011;37545;45.302;-122.946;2022-09-12T12:54:00;17.10;;;9.50;;
51467;SDS011;37545;45.302;-122.946;2022-09-12T12:56:34;16.70;;;8.82;;
51467;SDS011;37545;45.302;-122.946;2022-09-12T12:59:16;16.30;;;9.50;;
51467;SDS011;37545;45.302;-122.946;2022-09-12T13:01:48;18.08;;;9.52;;
51467;SDS011;37545;45.302;-122.946;2022-09-12T13:04:20;19.03;;;9.00;;
51467;SDS011;37545;45.302;-122.946;2022-09-12T13:07:00;19.20;;;9.25;;
51467;SDS011;37545;45.302;-122.946;2022-09-12T13:09:36;19.20;;;8.88;;
51467;SDS011;37545;45.302;-122.946;2022-09-12T13:12:10;27.05;;;10.95;;
51467;SDS011;37545;45.302;-122.946;2022-09-12T13:14:47;19.30;;;9.73;;
51467;SDS011;37545;45.302;-122.946;2022-09-12T13:17:19;18.80;;;9.50;;
51467;SDS011;37545;45.302;-122.946;2022-09-12T13:19:52;18.83;;;10.15;;
51467;SDS011;37545;45.302;-122.946;2022-09-12T13:22:37;19.52;;;8.75;;
51467;SDS011;37545;45.302;-122.946;2022-09-12T13:25:19;19.85;;;8.48;;
51467;SDS011;37545;45.302;-122.946;2022-09-12T13:30:25;17.05;;;9.07;;
51467;SDS011;37545;45.302;-122.946;2022-09-12T13:32:55;21.90;;;8.85;;
51467;SDS011;37545;45.302;-122.946;2022-09-12T13:35:27;21.83;;;8.43;;
51467;SDS011;37545;45.302;-122.946;2022-09-12T13:38:05;19.77;;;8.98;;
51467;SDS011;37545;45.302;-122.946;2022-09-12T13:40:51;19.73;;;9.10;;
51467;SDS011;37545;45.302;-122.946;2022-09-12T13:43:35;18.20;;;9.18;;
51467;SDS011;37545;45.302;-122.946;2022-09-12T13:46:07;17.35;;;8.75;;
51467;SDS011;37545;45.302;-122.946;2022-09-12T13:48:39;18.45;;;8.52;;
51467;SDS011;37545;45.302;-122.946;2022-09-12T13:51:12;13.45;;;8.07;;
51467;SDS011;37545;45.302;-122.946;2022-09-12T13:53:49;18.50;;;7.85;;
51467;SDS011;37545;45.302;-122.946;2022-09-12T13:56:22;16.30;;;8.93;;
51467;SDS011;37545;45.302;-122.946;2022-09-12T13:58:51;20.58;;;10.05;;
51467;SDS011;37545;45.302;-122.946;2022-09-12T14:01:21;14.32;;;8.23;;
51467;SDS011;37545;45.302;-122.946;2022-09-12T14:03:57;16.77;;;8.30;;
51467;SDS011;37545;45.302;-122.946;2022-09-12T14:06:42;24.67;;;10.55;;
51467;SDS011;37545;45.302;-122.946;2022-09-12T14:09:14;15.97;;;8.67;;
51467;SDS011;37545;45.302;-122.946;2022-09-12T14:11:52;20.20;;;9.82;;
51467;SDS011;37545;45.302;-122.946;2022-09-12T14:14:23;18.95;;;8.38;;
51467;SDS011;37545;45.302;-122.946;2022-09-12T14:16:56;19.73;;;9.60;;
51467;SDS011;37545;45.302;-122.946;2022-09-12T14:19:25;18.20;;;8.77;;
51467;SDS011;37545;45.302;-122.946;2022-09-12T14:21:54;22.92;;;9.18;;
51467;SDS011;37545;45.302;-122.946;2022-09-12T14:24:26;20.95;;;10.30;;
51467;SDS011;37545;45.302;-122.946;2022-09-12T14:27:01;23.50;;;10.23;;
51467;SDS011;37545;45.302;-122.946;2022-09-12T14:29:31;16.23;;;9.77;;
51467;SDS011;37545;45.302;-122.946;2022-09-12T14:32:00;26.80;;;10.43;;
51467;SDS011;37545;45.302;-122.946;2022-09-12T14:34:31;17.60;;;8.93;;
51467;SDS011;37545;45.302;-122.946;2022-09-12T14:37:01;17.08;;;8.68;;
51467;SDS011;37545;45.302;-122.946;2022-09-12T14:39:36;19.35;;;9.25;;
51467;SDS011;37545;45.302;-122.946;2022-09-12T14:42:13;17.98;;;9.15;;
51467;SDS011;37545;45.302;-122.946;2022-09-12T14:44:50;15.73;;;9.25;;
51467;SDS011;37545;45.302;-122.946;2022-09-12T14:47:30;18.20;;;9.45;;
51467;SDS011;37545;45.302;-122.946;2022-09-12T14:50:13;18.52;;;9.68;;
51467;SDS011;37545;45.302;-122.946;2022-09-12T14:52:46;19.33;;;9.35;;
51467;SDS011;37545;45.302;-122.946;2022-09-12T14:55:49;21.08;;;10.70;;
51467;SDS011;37545;45.302;-122.946;2022-09-12T14:58:24;15.50;;;8.15;;
51467;SDS011;37545;45.302;-122.946;2022-09-12T15:00:57;19.73;;;10.45;;
51467;SDS011;37545;45.302;-122.946;2022-09-12T15:03:28;19.95;;;9.68;;
51467;SDS011;37545;45.302;-122.946;2022-09-12T15:05:58;21.08;;;9.73;;
51467;SDS011;37545;45.302;-122.946;2022-09-12T15:08:29;24.75;;;10.10;;
51467;SDS011;37545;45.302;-122.946;2022-09-12T15:11:04;17.98;;;8.68;;
51467;SDS011;37545;45.302;-122.946;2022-09-12T15:16:08;20.08;;;9.10;;